createdAt,value
2022-12-24T00:00:47.000Z,999.1
2022-12-24T00:02:03.000Z,999.2
2022-12-24T00:03:19.000Z,999.1
2022-12-24T00:04:35.000Z,999.2
2022-12-24T00:05:52.000Z,999.2
2022-12-24T00:07:08.000Z,999.2
2022-12-24T00:08:23.000Z,999.1
2022-12-24T00:09:38.000Z,999.2
2022-12-24T00:10:55.000Z,999.3
2022-12-24T00:12:10.000Z,999.3
2022-12-24T00:13:25.000Z,999.3
2022-12-24T00:14:41.000Z,999.3
2022-12-24T00:15:58.000Z,999.3
2022-12-24T00:17:14.000Z,999.4
2022-12-24T00:18:30.000Z,999.3
2022-12-24T00:19:46.000Z,999.4
2022-12-24T00:21:03.000Z,999.6
2022-12-24T00:22:19.000Z,999.4
2022-12-24T00:23:35.000Z,999.5
2022-12-24T00:24:51.000Z,999.4
2022-12-24T00:26:08.000Z,999.4
2022-12-24T00:27:24.000Z,999.5
2022-12-24T00:28:40.000Z,999.4
2022-12-24T00:29:55.000Z,999.5
2022-12-24T00:31:11.000Z,999.6
2022-12-24T00:32:28.000Z,999.6
2022-12-24T00:33:44.000Z,999.7
2022-12-24T00:35:00.000Z,999.6
2022-12-24T00:36:16.000Z,999.7
2022-12-24T00:37:33.000Z,999.6
2022-12-24T00:38:49.000Z,999.7
2022-12-24T00:40:05.000Z,999.6
2022-12-24T00:41:21.000Z,999.6
2022-12-24T00:42:37.000Z,999.6
2022-12-24T00:43:52.000Z,999.8
2022-12-24T00:45:08.000Z,999.7
2022-12-24T00:46:24.000Z,999.8
2022-12-24T00:47:41.000Z,999.9
2022-12-24T00:48:57.000Z,999.9
2022-12-24T00:50:12.000Z,1000
2022-12-24T00:51:27.000Z,1000
2022-12-24T00:52:44.000Z,999.9
2022-12-24T00:54:00.000Z,999.9
2022-12-24T00:55:16.000Z,999.9
2022-12-24T00:56:32.000Z,999.9
2022-12-24T00:57:48.000Z,999.9
2022-12-24T00:59:05.000Z,999.9
2022-12-24T01:00:21.000Z,1000
2022-12-24T01:01:37.000Z,999.9
2022-12-24T01:02:53.000Z,999.9
2022-12-24T01:04:10.000Z,1000
2022-12-24T01:05:26.000Z,1000
2022-12-24T01:06:42.000Z,1000
2022-12-24T01:07:57.000Z,1000
2022-12-24T01:09:14.000Z,1000.1
2022-12-24T01:10:30.000Z,1000.1
2022-12-24T01:11:46.000Z,1000.1
2022-12-24T01:13:02.000Z,1000.1
2022-12-24T01:14:19.000Z,1000.2
2022-12-24T01:15:35.000Z,1000.1
2022-12-24T01:16:51.000Z,1000.2
2022-12-24T01:18:07.000Z,1000.3
2022-12-24T01:19:23.000Z,1000.3
2022-12-24T01:20:40.000Z,1000.3
2022-12-24T01:21:56.000Z,1000.3
2022-12-24T01:23:12.000Z,1000.3
2022-12-24T01:24:27.000Z,1000.4
2022-12-24T01:25:44.000Z,1000.4
2022-12-24T01:27:00.000Z,1000.4
2022-12-24T01:28:16.000Z,1000.5
2022-12-24T01:29:32.000Z,1000.5
2022-12-24T01:30:49.000Z,1000.5
2022-12-24T01:32:05.000Z,1000.6
2022-12-24T01:33:21.000Z,1000.6
2022-12-24T01:34:37.000Z,1000.6
2022-12-24T01:35:54.000Z,1000.6
2022-12-24T01:37:10.000Z,1000.6
2022-12-24T01:38:26.000Z,1000.7
2022-12-24T01:39:42.000Z,1000.6
2022-12-24T01:40:57.000Z,1000.7
2022-12-24T01:42:14.000Z,1000.6
2022-12-24T01:43:30.000Z,1000.7
2022-12-24T01:44:46.000Z,1000.8
2022-12-24T01:46:02.000Z,1000.8
2022-12-24T01:47:19.000Z,1000.7
2022-12-24T01:48:35.000Z,1000.8
2022-12-24T01:49:51.000Z,1000.8
2022-12-24T01:51:07.000Z,1000.9
2022-12-24T01:52:24.000Z,1000.8
2022-12-24T01:53:40.000Z,1000.8
2022-12-24T01:54:56.000Z,1000.9
2022-12-24T01:56:12.000Z,1000.9
2022-12-24T01:57:28.000Z,1000.9
2022-12-24T01:58:44.000Z,1000.9
2022-12-24T02:00:00.000Z,1001
2022-12-24T02:01:16.000Z,1000.9
2022-12-24T02:02:32.000Z,1001
2022-12-24T02:03:49.000Z,1001
2022-12-24T02:05:05.000Z,1001
2022-12-24T02:06:21.000Z,1000.9
2022-12-24T02:07:37.000Z,1000.9
2022-12-24T02:08:54.000Z,1001
2022-12-24T02:10:10.000Z,1000.9
2022-12-24T02:11:26.000Z,1001
2022-12-24T02:12:42.000Z,1001
2022-12-24T02:13:58.000Z,1001.1
2022-12-24T02:15:14.000Z,1001.1
2022-12-24T02:16:30.000Z,1001.1
2022-12-24T02:17:46.000Z,1001.1
2022-12-24T02:19:03.000Z,1001.1
2022-12-24T02:20:19.000Z,1001
2022-12-24T02:21:35.000Z,1001
2022-12-24T02:22:51.000Z,1001.1
2022-12-24T02:24:07.000Z,1001.1
2022-12-24T02:25:24.000Z,1001.1
2022-12-24T02:26:40.000Z,1001.2
2022-12-24T02:27:56.000Z,1001.2
2022-12-24T02:29:12.000Z,1001.2
2022-12-24T02:30:28.000Z,1001.3
2022-12-24T02:31:44.000Z,1001.3
2022-12-24T02:33:00.000Z,1001.3
2022-12-24T02:34:16.000Z,1001.4
2022-12-24T02:35:33.000Z,1001.4
2022-12-24T02:36:49.000Z,1001.4
2022-12-24T02:38:05.000Z,1001.4
2022-12-24T02:39:21.000Z,1001.4
2022-12-24T02:40:37.000Z,1001.4
2022-12-24T02:41:54.000Z,1001.4
2022-12-24T02:43:10.000Z,1001.5
2022-12-24T02:44:26.000Z,1001.5
2022-12-24T02:45:42.000Z,1001.6
2022-12-24T02:46:58.000Z,1001.6
2022-12-24T02:48:14.000Z,1001.7
2022-12-24T02:49:30.000Z,1001.6
2022-12-24T02:50:46.000Z,1001.6
2022-12-24T02:52:03.000Z,1001.6
2022-12-24T02:53:19.000Z,1001.5
2022-12-24T02:54:35.000Z,1001.6
2022-12-24T02:55:51.000Z,1001.7
2022-12-24T02:57:08.000Z,1001.8
2022-12-24T02:58:24.000Z,1001.7
2022-12-24T02:59:40.000Z,1001.7
2022-12-24T03:00:56.000Z,1001.8
2022-12-24T03:02:12.000Z,1001.6
2022-12-24T03:03:28.000Z,1001.7
2022-12-24T03:04:44.000Z,1001.7
2022-12-24T03:06:00.000Z,1001.7
2022-12-24T03:07:16.000Z,1001.8
2022-12-24T03:08:33.000Z,1001.8
2022-12-24T03:09:49.000Z,1001.8
2022-12-24T03:11:05.000Z,1001.9
2022-12-24T03:12:21.000Z,1001.9
2022-12-24T03:13:37.000Z,1001.8
2022-12-24T03:14:53.000Z,1001.8
2022-12-24T03:16:09.000Z,1001.9
2022-12-24T03:17:25.000Z,1001.9
2022-12-24T03:18:42.000Z,1001.9
2022-12-24T03:19:58.000Z,1001.9
2022-12-24T03:21:14.000Z,1001.9
2022-12-24T03:22:30.000Z,1001.9
2022-12-24T03:23:46.000Z,1001.9
2022-12-24T03:25:03.000Z,1002
2022-12-24T03:26:19.000Z,1002
2022-12-24T03:27:35.000Z,1002
2022-12-24T03:28:51.000Z,1002.1
2022-12-24T03:30:07.000Z,1002.1
2022-12-24T03:31:23.000Z,1002.1
2022-12-24T03:32:39.000Z,1002.1
2022-12-24T03:33:55.000Z,1002.1
2022-12-24T03:35:12.000Z,1002
2022-12-24T03:36:28.000Z,1002
2022-12-24T03:37:44.000Z,1002
2022-12-24T03:39:00.000Z,1002.1
2022-12-24T03:40:17.000Z,1002.1
2022-12-24T03:41:33.000Z,1002.1
2022-12-24T03:42:49.000Z,1002.2
2022-12-24T03:44:05.000Z,1002.2
2022-12-24T03:45:21.000Z,1002.1
2022-12-24T03:46:37.000Z,1002.2
2022-12-24T03:47:53.000Z,1002.2
2022-12-24T03:49:09.000Z,1002.1
2022-12-24T03:50:25.000Z,1002.2
2022-12-24T03:51:42.000Z,1002.1
2022-12-24T03:52:57.000Z,1002.2
2022-12-24T03:54:12.000Z,1002.3
2022-12-24T03:55:28.000Z,1002.2
2022-12-24T03:56:45.000Z,1002.2
2022-12-24T03:58:01.000Z,1002.2
2022-12-24T03:59:17.000Z,1002.2
2022-12-24T04:00:32.000Z,1002.2
2022-12-24T04:01:48.000Z,1002.3
2022-12-24T04:03:04.000Z,1002.3
2022-12-24T04:04:20.000Z,1002.4
2022-12-24T04:05:36.000Z,1002.4
2022-12-24T04:06:53.000Z,1002.4
2022-12-24T04:08:09.000Z,1002.3
2022-12-24T04:09:25.000Z,1002.3
2022-12-24T04:10:41.000Z,1002.3
2022-12-24T04:11:58.000Z,1002.3
2022-12-24T04:13:14.000Z,1002.4
2022-12-24T04:14:30.000Z,1002.4
2022-12-24T04:15:46.000Z,1002.3
2022-12-24T04:17:02.000Z,1002.3
2022-12-24T04:18:18.000Z,1002.4
2022-12-24T04:19:34.000Z,1002.4
2022-12-24T04:20:50.000Z,1002.4
2022-12-24T04:22:06.000Z,1002.5
2022-12-24T04:23:23.000Z,1002.5
2022-12-24T04:24:39.000Z,1002.5
2022-12-24T04:25:55.000Z,1002.5
2022-12-24T04:27:11.000Z,1002.5
2022-12-24T04:28:28.000Z,1002.6
2022-12-24T04:29:44.000Z,1002.6
2022-12-24T04:31:00.000Z,1002.5
2022-12-24T04:32:16.000Z,1002.6
2022-12-24T04:33:32.000Z,1002.6
2022-12-24T04:34:48.000Z,1002.6
2022-12-24T04:36:04.000Z,1002.7
2022-12-24T04:37:20.000Z,1002.7
2022-12-24T04:38:36.000Z,1002.7
2022-12-24T04:39:53.000Z,1002.7
2022-12-24T04:41:09.000Z,1002.8
2022-12-24T04:42:25.000Z,1002.7
2022-12-24T04:43:41.000Z,1002.8
2022-12-24T04:44:58.000Z,1002.8
2022-12-24T04:46:14.000Z,1002.7
2022-12-24T04:47:30.000Z,1002.7
2022-12-24T04:48:46.000Z,1002.8
2022-12-24T04:50:03.000Z,1002.8
2022-12-24T04:51:18.000Z,1002.8
2022-12-24T04:52:34.000Z,1002.8
2022-12-24T04:53:50.000Z,1002.9
2022-12-24T04:55:07.000Z,1002.9
2022-12-24T04:56:23.000Z,1002.9
2022-12-24T04:57:39.000Z,1003
2022-12-24T04:58:55.000Z,1003
2022-12-24T05:00:11.000Z,1003.1
2022-12-24T05:01:28.000Z,1003.1
2022-12-24T05:02:44.000Z,1003
2022-12-24T05:04:00.000Z,1003
2022-12-24T05:05:16.000Z,1003
2022-12-24T05:06:33.000Z,1003
2022-12-24T05:07:48.000Z,1003
2022-12-24T05:09:04.000Z,1003.1
2022-12-24T05:10:20.000Z,1003
2022-12-24T05:11:37.000Z,1003.1
2022-12-24T05:12:53.000Z,1003.1
2022-12-24T05:14:09.000Z,1003.1
2022-12-24T05:15:25.000Z,1003.1
2022-12-24T05:16:41.000Z,1003
2022-12-24T05:17:58.000Z,1003
2022-12-24T05:19:14.000Z,1003
2022-12-24T05:20:30.000Z,1003
2022-12-24T05:21:46.000Z,1003
2022-12-24T05:23:03.000Z,1003.1
2022-12-24T05:24:18.000Z,1003.1
2022-12-24T05:25:34.000Z,1003.1
2022-12-24T05:26:50.000Z,1003.1
2022-12-24T05:28:07.000Z,1003.2
2022-12-24T05:29:23.000Z,1003.1
2022-12-24T05:30:39.000Z,1003.2
2022-12-24T05:31:55.000Z,1003.1
2022-12-24T05:33:12.000Z,1003.2
2022-12-24T05:34:28.000Z,1003.2
2022-12-24T05:35:44.000Z,1003.2
2022-12-24T05:37:00.000Z,1003.2
2022-12-24T05:38:16.000Z,1003.2
2022-12-24T05:39:32.000Z,1003.2
2022-12-24T05:40:47.000Z,1003.3
2022-12-24T05:42:02.000Z,1003.4
2022-12-24T05:43:18.000Z,1003.3
2022-12-24T05:44:34.000Z,1003.3
2022-12-24T05:45:50.000Z,1003.3
2022-12-24T05:47:06.000Z,1003.3
2022-12-24T05:48:22.000Z,1003.3
2022-12-24T05:49:39.000Z,1003.3
2022-12-24T05:50:55.000Z,1003.4
2022-12-24T05:52:11.000Z,1003.4
2022-12-24T05:53:27.000Z,1003.4
2022-12-24T05:54:44.000Z,1003.4
2022-12-24T05:56:00.000Z,1003.3
2022-12-24T05:57:16.000Z,1003.3
2022-12-24T05:58:32.000Z,1003.4
2022-12-24T05:59:48.000Z,1003.4
2022-12-24T06:01:04.000Z,1003.4
2022-12-24T06:02:20.000Z,1003.4
2022-12-24T06:03:36.000Z,1003.5
2022-12-24T06:04:53.000Z,1003.5
2022-12-24T06:06:09.000Z,1003.5
2022-12-24T06:07:25.000Z,1003.4
2022-12-24T06:08:40.000Z,1003.4
2022-12-24T06:09:55.000Z,1003.4
2022-12-24T06:11:11.000Z,1003.5
2022-12-24T06:12:26.000Z,1003.5
2022-12-24T06:13:42.000Z,1003.5
2022-12-24T06:14:58.000Z,1003.5
2022-12-24T06:16:15.000Z,1003.5
2022-12-24T06:17:31.000Z,1003.5
2022-12-24T06:18:47.000Z,1003.5
2022-12-24T06:20:03.000Z,1003.5
2022-12-24T06:21:20.000Z,1003.6
2022-12-24T06:22:36.000Z,1003.5
2022-12-24T06:23:52.000Z,1003.5
2022-12-24T06:25:08.000Z,1003.5
2022-12-24T06:26:25.000Z,1003.5
2022-12-24T06:27:41.000Z,1003.5
2022-12-24T06:28:56.000Z,1003.5
2022-12-24T06:30:12.000Z,1003.5
2022-12-24T06:31:29.000Z,1003.5
2022-12-24T06:32:45.000Z,1003.5
2022-12-24T06:34:01.000Z,1003.5
2022-12-24T06:35:17.000Z,1003.5
2022-12-24T06:36:33.000Z,1003.5
2022-12-24T06:37:50.000Z,1003.5
2022-12-24T06:39:06.000Z,1003.5
2022-12-24T06:40:22.000Z,1003.6
2022-12-24T06:41:38.000Z,1003.5
2022-12-24T06:42:55.000Z,1003.5
2022-12-24T06:44:11.000Z,1003.6
2022-12-24T06:45:26.000Z,1003.6
2022-12-24T06:46:42.000Z,1003.6
2022-12-24T06:47:59.000Z,1003.6
2022-12-24T06:49:15.000Z,1003.7
2022-12-24T06:50:31.000Z,1003.7
2022-12-24T06:51:47.000Z,1003.7
2022-12-24T06:53:04.000Z,1003.7
2022-12-24T06:54:20.000Z,1003.7
2022-12-24T06:55:36.000Z,1003.7
2022-12-24T06:56:52.000Z,1003.8
2022-12-24T06:58:08.000Z,1003.9
2022-12-24T06:59:25.000Z,1003.8
2022-12-24T07:00:41.000Z,1003.9
2022-12-24T07:01:56.000Z,1004
2022-12-24T07:03:12.000Z,1003.9
2022-12-24T07:04:29.000Z,1003.9
2022-12-24T07:05:45.000Z,1003.9
2022-12-24T07:07:01.000Z,1004
2022-12-24T07:08:17.000Z,1004
2022-12-24T07:09:34.000Z,1004
2022-12-24T07:10:50.000Z,1003.9
2022-12-24T07:12:06.000Z,1003.9
2022-12-24T07:13:22.000Z,1003.9
2022-12-24T07:14:39.000Z,1004
2022-12-24T07:15:55.000Z,1004
2022-12-24T07:17:11.000Z,1004.1
2022-12-24T07:18:26.000Z,1004.1
2022-12-24T07:19:42.000Z,1004.1
2022-12-24T07:20:59.000Z,1004.2
2022-12-24T07:22:15.000Z,1004.2
2022-12-24T07:23:31.000Z,1004.1
2022-12-24T07:24:47.000Z,1004.1
2022-12-24T07:26:04.000Z,1004.2
2022-12-24T07:27:20.000Z,1004.2
2022-12-24T07:28:35.000Z,1004.2
2022-12-24T07:29:51.000Z,1004.2
2022-12-24T07:31:08.000Z,1004.2
2022-12-24T07:32:24.000Z,1004.2
2022-12-24T07:33:40.000Z,1004.2
2022-12-24T07:34:56.000Z,1004.3
2022-12-24T07:36:13.000Z,1004.2
2022-12-24T07:37:29.000Z,1004.3
2022-12-24T07:38:45.000Z,1004.3
2022-12-24T07:40:01.000Z,1004.2
2022-12-24T07:41:17.000Z,1004.1
2022-12-24T07:42:34.000Z,1004.2
2022-12-24T07:43:50.000Z,1004.1
2022-12-24T07:45:05.000Z,1004.2
2022-12-24T07:46:21.000Z,1004.3
2022-12-24T07:47:38.000Z,1004.3
2022-12-24T07:48:54.000Z,1004.3
2022-12-24T07:50:10.000Z,1004.4
2022-12-24T07:51:26.000Z,1004.4
2022-12-24T07:52:43.000Z,1004.5
2022-12-24T07:53:59.000Z,1004.4
2022-12-24T07:55:15.000Z,1004.4
2022-12-24T07:56:31.000Z,1004.4
2022-12-24T07:57:48.000Z,1004.4
2022-12-24T07:59:04.000Z,1004.5
2022-12-24T08:00:20.000Z,1004.5
2022-12-24T08:01:35.000Z,1004.4
2022-12-24T08:02:51.000Z,1004.4
2022-12-24T08:04:08.000Z,1004.4
2022-12-24T08:05:24.000Z,1004.4
2022-12-24T08:06:40.000Z,1004.5
2022-12-24T08:07:56.000Z,1004.5
2022-12-24T08:09:13.000Z,1004.4
2022-12-24T08:10:29.000Z,1004.5
2022-12-24T08:11:45.000Z,1004.5
2022-12-24T08:13:01.000Z,1004.6
2022-12-24T08:14:18.000Z,1004.6
2022-12-24T08:15:34.000Z,1004.6
2022-12-24T08:16:50.000Z,1004.6
2022-12-24T08:18:05.000Z,1004.7
2022-12-24T08:19:22.000Z,1004.6
2022-12-24T08:20:38.000Z,1004.7
2022-12-24T08:21:54.000Z,1004.8
2022-12-24T08:23:10.000Z,1004.8
2022-12-24T08:24:26.000Z,1004.7
2022-12-24T08:25:43.000Z,1004.7
2022-12-24T08:26:59.000Z,1004.7
2022-12-24T08:28:15.000Z,1004.7
2022-12-24T08:29:31.000Z,1004.8
2022-12-24T08:30:48.000Z,1004.7
2022-12-24T08:32:04.000Z,1004.8
2022-12-24T08:33:20.000Z,1004.9
2022-12-24T08:34:35.000Z,1004.9
2022-12-24T08:35:52.000Z,1004.9
2022-12-24T08:37:08.000Z,1004.9
2022-12-24T08:38:24.000Z,1005
2022-12-24T08:39:40.000Z,1005
2022-12-24T08:40:56.000Z,1005
2022-12-24T08:42:13.000Z,1005
2022-12-24T08:43:29.000Z,1005.1
2022-12-24T08:44:45.000Z,1005.1
2022-12-24T08:46:01.000Z,1005.1
2022-12-24T08:47:18.000Z,1005.1
2022-12-24T08:48:34.000Z,1005.1
2022-12-24T08:49:50.000Z,1005.1
2022-12-24T08:51:05.000Z,1005.1
2022-12-24T08:52:22.000Z,1005.1
2022-12-24T08:53:38.000Z,1005.1
2022-12-24T08:54:54.000Z,1005.1
2022-12-24T08:56:10.000Z,1005.1
2022-12-24T08:57:27.000Z,1005.1
2022-12-24T08:58:43.000Z,1005.1
2022-12-24T08:59:59.000Z,1005.2
2022-12-24T09:01:15.000Z,1005.2
2022-12-24T09:02:31.000Z,1005.2
2022-12-24T09:03:48.000Z,1005.2
2022-12-24T09:05:04.000Z,1005.3
2022-12-24T09:06:20.000Z,1005.4
2022-12-24T09:07:35.000Z,1005.4
2022-12-24T09:08:52.000Z,1005.4
2022-12-24T09:10:08.000Z,1005.3
2022-12-24T09:11:24.000Z,1005.3
2022-12-24T09:12:40.000Z,1005.4
2022-12-24T09:13:57.000Z,1005.3
2022-12-24T09:15:13.000Z,1005.4
2022-12-24T09:16:29.000Z,1005.4
2022-12-24T09:17:45.000Z,1005.4
2022-12-24T09:19:02.000Z,1005.5
2022-12-24T09:20:18.000Z,1005.4
2022-12-24T09:21:34.000Z,1005.5
2022-12-24T09:22:50.000Z,1005.5
2022-12-24T09:24:05.000Z,1005.5
2022-12-24T09:25:22.000Z,1005.6
2022-12-24T09:26:38.000Z,1005.7
2022-12-24T09:27:54.000Z,1005.7
2022-12-24T09:29:10.000Z,1005.7
2022-12-24T09:30:27.000Z,1005.8
2022-12-24T09:31:43.000Z,1005.8
2022-12-24T09:32:59.000Z,1005.7
2022-12-24T09:34:15.000Z,1005.9
2022-12-24T09:35:32.000Z,1005.9
2022-12-24T09:36:48.000Z,1006
2022-12-24T09:38:04.000Z,1006
2022-12-24T09:39:20.000Z,1005.9
2022-12-24T09:40:36.000Z,1006.1
2022-12-24T09:41:52.000Z,1006
2022-12-24T09:43:08.000Z,1006
2022-12-24T09:44:24.000Z,1006
2022-12-24T09:45:40.000Z,1006.1
2022-12-24T09:46:57.000Z,1006.1
2022-12-24T09:48:13.000Z,1006.1
2022-12-24T09:49:29.000Z,1006.2
2022-12-24T09:50:45.000Z,1006
2022-12-24T09:52:02.000Z,1006.1
2022-12-24T09:53:18.000Z,1006.1
2022-12-24T09:54:34.000Z,1006.1
2022-12-24T09:55:50.000Z,1006.1
2022-12-24T09:57:06.000Z,1006.1
2022-12-24T09:58:22.000Z,1006.1
2022-12-24T09:59:38.000Z,1006.1
2022-12-24T10:00:54.000Z,1006
2022-12-24T10:02:11.000Z,1006.1
2022-12-24T10:03:27.000Z,1006.1
2022-12-24T10:04:43.000Z,1006.1
2022-12-24T10:05:59.000Z,1006.1
2022-12-24T10:07:15.000Z,1006.2
2022-12-24T10:08:32.000Z,1006.2
2022-12-24T10:09:48.000Z,1006.2
2022-12-24T10:11:04.000Z,1006.2
2022-12-24T10:12:20.000Z,1006.3
2022-12-24T10:13:36.000Z,1006.4
2022-12-24T10:14:52.000Z,1006.2
2022-12-24T10:16:08.000Z,1006.2
2022-12-24T10:17:24.000Z,1006.3
2022-12-24T10:18:41.000Z,1006.4
2022-12-24T10:19:57.000Z,1006.4
2022-12-24T10:21:13.000Z,1006.3
2022-12-24T10:22:29.000Z,1006.3
2022-12-24T10:23:46.000Z,1006.4
2022-12-24T10:25:02.000Z,1006.2
2022-12-24T10:26:18.000Z,1006.3
2022-12-24T10:27:34.000Z,1006.2
2022-12-24T10:28:50.000Z,1006.3
2022-12-24T10:30:06.000Z,1006.4
2022-12-24T10:31:22.000Z,1006.4
2022-12-24T10:32:38.000Z,1006.4
2022-12-24T10:33:54.000Z,1006.4
2022-12-24T10:35:11.000Z,1006.3
2022-12-24T10:36:27.000Z,1006.3
2022-12-24T10:37:43.000Z,1006.3
2022-12-24T10:38:59.000Z,1006.3
2022-12-24T10:40:16.000Z,1006.3
2022-12-24T10:41:32.000Z,1006.3
2022-12-24T10:42:48.000Z,1006.3
2022-12-24T10:44:04.000Z,1006.4
2022-12-24T10:45:21.000Z,1006.4
2022-12-24T10:46:36.000Z,1006.4
2022-12-24T10:47:52.000Z,1006.4
2022-12-24T10:49:08.000Z,1006.4
2022-12-24T10:50:24.000Z,1006.4
2022-12-24T10:51:41.000Z,1006.4
2022-12-24T10:52:57.000Z,1006.4
2022-12-24T10:54:13.000Z,1006.4
2022-12-24T10:55:29.000Z,1006.5
2022-12-24T10:56:46.000Z,1006.4
2022-12-24T10:58:02.000Z,1006.4
2022-12-24T10:59:18.000Z,1006.5
2022-12-24T11:00:34.000Z,1006.6
2022-12-24T11:01:51.000Z,1006.5
2022-12-24T11:03:06.000Z,1006.4
2022-12-24T11:04:22.000Z,1006.5
2022-12-24T11:05:38.000Z,1006.6
2022-12-24T11:06:55.000Z,1006.5
2022-12-24T11:08:11.000Z,1006.5
2022-12-24T11:09:27.000Z,1006.5
2022-12-24T11:10:43.000Z,1006.5
2022-12-24T11:11:59.000Z,1006.5
2022-12-24T11:13:16.000Z,1006.5
2022-12-24T11:14:31.000Z,1006.4
2022-12-24T11:15:46.000Z,1006.4
2022-12-24T11:17:01.000Z,1006.4
2022-12-24T11:18:17.000Z,1006.4
2022-12-24T11:19:33.000Z,1006.4
2022-12-24T11:20:49.000Z,1006.4
2022-12-24T11:22:05.000Z,1006.3
2022-12-24T11:23:22.000Z,1006.3
2022-12-24T11:24:38.000Z,1006.2
2022-12-24T11:25:54.000Z,1006.3
2022-12-24T11:27:10.000Z,1006.3
2022-12-24T11:28:27.000Z,1006.3
2022-12-24T11:29:43.000Z,1006.2
2022-12-24T11:30:59.000Z,1006.2
2022-12-24T11:32:15.000Z,1006.3
2022-12-24T11:33:32.000Z,1006.3
2022-12-24T11:34:47.000Z,1006.4
2022-12-24T11:36:03.000Z,1006.2
2022-12-24T11:37:19.000Z,1006.3
2022-12-24T11:38:35.000Z,1006.4
2022-12-24T11:39:52.000Z,1006.3
2022-12-24T11:41:08.000Z,1006.3
2022-12-24T11:42:24.000Z,1006.5
2022-12-24T11:43:39.000Z,1006.4
2022-12-24T11:44:56.000Z,1006.4
2022-12-24T11:46:12.000Z,1006.5
2022-12-24T11:47:28.000Z,1006.5
2022-12-24T11:48:44.000Z,1006.5
2022-12-24T11:50:01.000Z,1006.5
2022-12-24T11:51:17.000Z,1006.5
2022-12-24T11:52:33.000Z,1006.4
2022-12-24T11:53:49.000Z,1006.4
2022-12-24T11:55:06.000Z,1006.4
2022-12-24T11:56:22.000Z,1006.5
2022-12-24T11:57:38.000Z,1006.6
2022-12-24T11:58:54.000Z,1006.5
2022-12-24T12:00:09.000Z,1006.6
2022-12-24T12:01:26.000Z,1006.4
2022-12-24T12:02:42.000Z,1006.4
2022-12-24T12:03:58.000Z,1006.4
2022-12-24T12:05:14.000Z,1006.4
2022-12-24T12:06:31.000Z,1006.4
2022-12-24T12:07:47.000Z,1006.4
2022-12-24T12:09:03.000Z,1006.5
2022-12-24T12:10:19.000Z,1006.6
2022-12-24T12:11:36.000Z,1006.5
2022-12-24T12:12:52.000Z,1006.6
2022-12-24T12:14:08.000Z,1006.7
2022-12-24T12:15:24.000Z,1006.8
2022-12-24T12:16:40.000Z,1006.7
2022-12-24T12:17:56.000Z,1006.7
2022-12-24T12:19:12.000Z,1006.7
2022-12-24T12:20:28.000Z,1006.7
2022-12-24T12:21:44.000Z,1006.7
2022-12-24T12:22:59.000Z,1006.7
2022-12-24T12:24:15.000Z,1006.7
2022-12-24T12:25:30.000Z,1006.7
2022-12-24T12:26:46.000Z,1006.7
2022-12-24T12:28:02.000Z,1006.7
2022-12-24T12:29:18.000Z,1006.7
2022-12-24T12:30:34.000Z,1006.7
2022-12-24T12:31:50.000Z,1006.8
2022-12-24T12:33:07.000Z,1006.8
2022-12-24T12:34:23.000Z,1006.8
2022-12-24T12:35:39.000Z,1006.8
2022-12-24T12:36:55.000Z,1006.7
2022-12-24T12:38:12.000Z,1006.9
2022-12-24T12:39:28.000Z,1006.8
2022-12-24T12:40:44.000Z,1006.7
2022-12-24T12:42:00.000Z,1006.8
2022-12-24T12:43:16.000Z,1006.8
2022-12-24T12:44:32.000Z,1006.8
2022-12-24T12:45:48.000Z,1006.8
2022-12-24T12:47:04.000Z,1006.7
2022-12-24T12:48:20.000Z,1006.8
2022-12-24T12:49:37.000Z,1006.8
2022-12-24T12:50:53.000Z,1006.8
2022-12-24T12:52:09.000Z,1006.8
2022-12-24T12:53:25.000Z,1006.8
2022-12-24T12:54:42.000Z,1006.8
2022-12-24T12:55:58.000Z,1006.9
2022-12-24T12:57:14.000Z,1006.9
2022-12-24T12:58:30.000Z,1007
2022-12-24T12:59:46.000Z,1007
2022-12-24T13:01:02.000Z,1007
2022-12-24T13:02:18.000Z,1007
2022-12-24T13:03:34.000Z,1007
2022-12-24T13:04:51.000Z,1007
2022-12-24T13:06:07.000Z,1007
2022-12-24T13:07:23.000Z,1007.1
2022-12-24T13:08:39.000Z,1007
2022-12-24T13:09:55.000Z,1007.1
2022-12-24T13:11:12.000Z,1007.2
2022-12-24T13:12:28.000Z,1007.2
2022-12-24T13:13:44.000Z,1007
2022-12-24T13:15:00.000Z,1007.1
2022-12-24T13:16:16.000Z,1007.1
2022-12-24T13:17:32.000Z,1007.2
2022-12-24T13:18:48.000Z,1007.1
2022-12-24T13:20:04.867Z,1007.1
2022-12-24T13:21:21.000Z,1007.2
2022-12-24T13:22:37.000Z,1007.2
2022-12-24T13:23:53.000Z,1007.2
2022-12-24T13:25:09.000Z,1007.2
2022-12-24T13:26:26.000Z,1007.2
2022-12-24T13:27:42.000Z,1007.1
2022-12-24T13:28:58.000Z,1007.2
2022-12-24T13:30:14.000Z,1007.2
2022-12-24T13:31:30.000Z,1007.2
2022-12-24T13:32:46.000Z,1007.3
2022-12-24T13:34:02.000Z,1007.3
2022-12-24T13:35:18.000Z,1007.3
2022-12-24T13:36:34.000Z,1007.3
2022-12-24T13:37:51.000Z,1007.3
2022-12-24T13:39:07.000Z,1007.4
2022-12-24T13:40:23.000Z,1007.4
2022-12-24T13:41:39.000Z,1007.4
2022-12-24T13:42:56.000Z,1007.4
2022-12-24T13:44:12.000Z,1007.4
2022-12-24T13:45:28.000Z,1007.4
2022-12-24T13:46:44.000Z,1007.4
2022-12-24T13:48:01.000Z,1007.5
2022-12-24T13:49:16.000Z,1007.5
2022-12-24T13:50:32.000Z,1007.6
2022-12-24T13:51:48.000Z,1007.5
2022-12-24T13:53:04.000Z,1007.5
2022-12-24T13:54:21.000Z,1007.5
2022-12-24T13:55:37.000Z,1007.6
2022-12-24T13:56:53.000Z,1007.6
2022-12-24T13:58:09.000Z,1007.6
2022-12-24T13:59:26.000Z,1007.6
2022-12-24T14:00:42.000Z,1007.6
2022-12-24T14:01:58.000Z,1007.6
2022-12-24T14:03:14.000Z,1007.6
2022-12-24T14:04:31.000Z,1007.7
2022-12-24T14:05:46.000Z,1007.7
2022-12-24T14:07:02.000Z,1007.7
2022-12-24T14:08:18.000Z,1007.7
2022-12-24T14:09:35.000Z,1007.8
2022-12-24T14:10:51.000Z,1007.8
2022-12-24T14:12:07.000Z,1007.6
2022-12-24T14:13:23.000Z,1007.8
2022-12-24T14:14:39.000Z,1007.7
2022-12-24T14:15:56.000Z,1007.7
2022-12-24T14:17:12.000Z,1007.7
2022-12-24T14:18:28.000Z,1007.7
2022-12-24T14:19:44.000Z,1007.8
2022-12-24T14:21:01.000Z,1007.8
2022-12-24T14:22:16.000Z,1007.9
2022-12-24T14:23:32.000Z,1007.9
2022-12-24T14:24:48.000Z,1007.9
2022-12-24T14:26:05.000Z,1007.8
2022-12-24T14:27:21.000Z,1007.8
2022-12-24T14:28:37.000Z,1007.9
2022-12-24T14:29:53.000Z,1007.9
2022-12-24T14:31:10.000Z,1007.9
2022-12-24T14:32:26.000Z,1008
2022-12-24T14:33:42.000Z,1008
2022-12-24T14:34:57.000Z,1008
2022-12-24T14:36:12.000Z,1008
2022-12-24T14:37:29.000Z,1008
2022-12-24T14:38:44.000Z,1008.1
2022-12-24T14:39:59.000Z,1008.2
2022-12-24T14:41:15.000Z,1008.2
2022-12-24T14:42:32.000Z,1008.2
2022-12-24T14:43:48.000Z,1008.2
2022-12-24T14:45:04.000Z,1008.2
2022-12-24T14:46:20.000Z,1008.2
2022-12-24T14:47:37.000Z,1008.2
2022-12-24T14:48:53.000Z,1008.2
2022-12-24T14:50:09.000Z,1008.3
2022-12-24T14:51:25.000Z,1008.2
2022-12-24T14:52:42.000Z,1008.3
2022-12-24T14:53:58.000Z,1008.3
2022-12-24T14:55:14.000Z,1008.3
2022-12-24T14:56:29.000Z,1008.3
2022-12-24T14:57:46.000Z,1008.3
2022-12-24T14:59:02.000Z,1008.3
2022-12-24T15:00:18.000Z,1008.3
2022-12-24T15:01:34.000Z,1008.3
2022-12-24T15:02:50.000Z,1008.3
2022-12-24T15:04:07.000Z,1008.3
2022-12-24T15:05:23.000Z,1008.3
2022-12-24T15:06:39.000Z,1008.3
2022-12-24T15:07:55.000Z,1008.4
2022-12-24T15:09:12.000Z,1008.4
2022-12-24T15:10:28.000Z,1008.4
2022-12-24T15:11:44.000Z,1008.5
2022-12-24T15:12:59.000Z,1008.5
2022-12-24T15:14:16.000Z,1008.5
2022-12-24T15:15:32.000Z,1008.5
2022-12-24T15:16:48.000Z,1008.5
2022-12-24T15:18:03.000Z,1008.6
2022-12-24T15:19:19.000Z,1008.6
2022-12-24T15:20:34.000Z,1008.6
2022-12-24T15:21:49.000Z,1008.7
2022-12-24T15:23:05.000Z,1008.7
2022-12-24T15:24:22.000Z,1008.7
2022-12-24T15:25:38.000Z,1008.7
2022-12-24T15:26:54.000Z,1008.8
2022-12-24T15:28:10.000Z,1008.8
2022-12-24T15:29:26.000Z,1008.8
2022-12-24T15:30:43.000Z,1008.8
2022-12-24T15:31:59.000Z,1008.8
2022-12-24T15:33:15.000Z,1008.7
2022-12-24T15:34:31.000Z,1008.8
2022-12-24T15:35:48.000Z,1008.8
2022-12-24T15:37:04.000Z,1008.8
2022-12-24T15:38:19.000Z,1008.8
2022-12-24T15:39:35.000Z,1008.9
2022-12-24T15:42:08.000Z,1009
2022-12-24T15:43:24.000Z,1008.9
2022-12-24T15:44:40.000Z,1008.9
2022-12-24T15:45:57.000Z,1008.9
2022-12-24T15:47:13.000Z,1009
2022-12-24T15:48:28.000Z,1009
2022-12-24T15:49:43.000Z,1009
2022-12-24T15:50:59.000Z,1009
2022-12-24T15:52:14.000Z,1009
2022-12-24T15:53:30.000Z,1009
2022-12-24T15:54:46.000Z,1009
2022-12-24T15:56:03.000Z,1009.1
2022-12-24T15:57:19.000Z,1009.1
2022-12-24T15:58:34.000Z,1009.1